Historyczne dane pomiarowe

Dodano dane terminowe – wersja testowa.

Dane z okresu 1951-2019

Wersja bazy: 1.34 [2019-03-16, lista zmian], aktualizacja planowana na 2019-04-15

Dane meteo z obszaru Polski uzyskane na podstawie danych udostępnionych przez Instytut Meteorologii i Gospodarki Wodnej – Państwowy Instytut Badawczy.

 

Wybierz Datę:    

       

TemperaturaWilgotnośćZachmurzenieWiatrCiśnienieWidzialnośćZjawiska
 Data    tng td wb rh cc ccl cl cm ch dir g1 g2 mslp ppp      
1999-08-08 00:00:00 14.8--- 12.8 13.688wxwx2wx--1007.7 985.8 0.0---wx
1999-08-08 01:00:00 14.2--- 12.1 13.087wxwx2wx--1007.4 985.4----wx
1999-08-08 02:00:00 13.2--- 11.1 12.087wxwx2wx--1007.2 985.1----wx
1999-08-08 03:00:00 12.0--- 9.8 10.886wxwxwx2wx--1007.2 985.1----wx
1999-08-08 04:00:00 13.0--- 10.9 11.887wxwxwx2wx--1007.0 984.9----wx
1999-08-08 05:00:00 14.2--- 12.1 13.087wxwxwx2wx--1006.7 984.7----wx
1999-08-08 06:00:00 15.0--- 12.3 13.484wxwxwx2wx--1006.5 984.6 0.0---wx
1999-08-08 07:00:00 16.5--- 13.5 14.782wxwxwx1wx--1006.0 984.2----wx
1999-08-08 08:00:00 18.6--- 14.6 16.177wxwxwx1wx--1005.6 984.0----wx
1999-08-08 09:00:00 19.1--- 14.9 16.577wxwxwx1wx--1005.7 984.1----wx
1999-08-08 10:00:00 18.4--- 17.3 17.793wxwxwx0wx--1005.7 984.1----wx
1999-08-08 11:00:00 17.2--- 16.6 16.896wxwxwx0wx--1006.1 984.4----wxw1
1999-08-08 12:00:00 16.8--- 16.5 16.698wxwxwx3wx--1005.0 983.3 12.3---wxw1
1999-08-08 13:00:00 16.8--- 16.3 16.597wxwxwx3wx--1004.5 982.8----wxw1
1999-08-08 14:00:00 17.7--- 16.6 17.093wxwxwx3wx--1004.3 982.6----wxw1
1999-08-08 15:00:00 17.9--- 17.1 17.495wxwxwx1wx--1003.7 982.1----wxw1
1999-08-08 16:00:00 17.9--- 17.1 17.495wxwxwx1wx--1004.0 982.4----wx
1999-08-08 17:00:00 18.0--- 16.9 17.393wxwxwx2wx--1003.8 982.2----wx
1999-08-08 18:00:00 17.9--- 17.1 17.495wxwxwx1wx--1004.4 982.8 1.7---wxw1
1999-08-08 19:00:00 17.6--- 17.0 17.296wxwxwx0wx--1004.8 983.1----wx
1999-08-08 20:00:00 17.3--- 16.7 16.996wxwxwx0wx--1004.4 982.7----wx
1999-08-08 21:00:00 17.3--- 16.7 16.996wxwxwx0wx--1004.6 982.9----wx
1999-08-08 22:00:00 16.5--- 16.0 16.297wxwxwx1wx--1005.0 983.2----wx
1999-08-08 23:00:00 16.7--- 16.2 16.497wxwxwx1wx--1004.7 983.0----wx

 

Źródłem pochodzenia danych jest Instytut Meteorologii i Gospodarki Wodnej – Państwowy Instytut Badawczy. Dane Instytutu Meteorologii i Gospodarki Wodnej – Państwowego Instytutu Badawczego zostały przetworzone.

Dane źródłowe można odnaleźć na stronie https://dane.imgw.pl